Aviation Digital Data Service (ADDS)

Output produced by METARs form (1349 UTC 20 October 2021)
found at http://www.aviationweather.gov/metar/data/
 
METAR text: LROP 201330Z 23010KT CAVOK 18/06 Q1025 NOSIG
Conditions at: LROP (BUCHAREST/OTOPEN, RO) observed 1330 UTC 20 October 2021
Temperature: 18.0°C (64°F)
Dewpoint: 6.0°C (43°F) [RH = 45%]
Pressure (altimeter): 30.27 inches Hg (1025.0 mb)
Winds: from the SW (230 degrees) at 12 MPH (10 knots; 5.1 m/s)
Visibility: 6 or more miles (10+ km)
Ceiling: ceiling and visibility are OK
Clouds: unknown
Weather: no significant weather observed at this time

METAR text: LROP 201300Z 24010KT CAVOK 18/07 Q1026 NOSIG
Conditions at: LROP (BUCHAREST/OTOPEN, RO) observed 1300 UTC 20 October 2021
Temperature: 18.0°C (64°F)
Dewpoint: 7.0°C (45°F) [RH = 49%]
Pressure (altimeter): 30.30 inches Hg (1026.0 mb)
Winds: from the WSW (240 degrees) at 12 MPH (10 knots; 5.1 m/s)
Visibility: 6 or more miles (10+ km)
Ceiling: ceiling and visibility are OK
Clouds: unknown
Weather: no significant weather observed at this time

METAR text: LROP 201230Z 23010KT CAVOK 18/06 Q1026 NOSIG
Conditions at: LROP (BUCHAREST/OTOPEN, RO) observed 1230 UTC 20 October 2021
Temperature: 18.0°C (64°F)
Dewpoint: 6.0°C (43°F) [RH = 45%]
Pressure (altimeter): 30.30 inches Hg (1026.0 mb)
Winds: from the SW (230 degrees) at 12 MPH (10 knots; 5.1 m/s)
Visibility: 6 or more miles (10+ km)
Ceiling: ceiling and visibility are OK
Clouds: unknown
Weather: no significant weather observed at this time

METAR text: LROP 201200Z 23008KT CAVOK 18/07 Q1026 NOSIG
Conditions at: LROP (BUCHAREST/OTOPEN, RO) observed 1200 UTC 20 October 2021
Temperature: 18.0°C (64°F)
Dewpoint: 7.0°C (45°F) [RH = 49%]
Pressure (altimeter): 30.30 inches Hg (1026.0 mb)
Winds: from the SW (230 degrees) at 9 MPH (8 knots; 4.1 m/s)
Visibility: 6 or more miles (10+ km)
Ceiling: ceiling and visibility are OK
Clouds: unknown
Weather: no significant weather observed at this time

METAR text: LROP 201130Z 23008KT 200V260 CAVOK 19/06 Q1027 NOSIG
Conditions at: LROP (BUCHAREST/OTOPEN, RO) observed 1130 UTC 20 October 2021
Temperature: 19.0°C (66°F)
Dewpoint: 6.0°C (43°F) [RH = 43%]
Pressure (altimeter): 30.32 inches Hg (1027.0 mb)
Winds: from the SW (230 degrees) at 9 MPH (8 knots; 4.1 m/s)
Visibility: 6 or more miles (10+ km)
Ceiling: ceiling and visibility are OK
Clouds: unknown
Weather: no significant weather observed at this time

METAR text: LROP 201100Z 24008KT 210V290 CAVOK 18/06 Q1027 NOSIG
Conditions at: LROP (BUCHAREST/OTOPEN, RO) observed 1100 UTC 20 October 2021
Temperature: 18.0°C (64°F)
Dewpoint: 6.0°C (43°F) [RH = 45%]
Pressure (altimeter): 30.32 inches Hg (1027.0 mb)
Winds: from the WSW (240 degrees) at 9 MPH (8 knots; 4.1 m/s)
Visibility: 6 or more miles (10+ km)
Ceiling: ceiling and visibility are OK
Clouds: unknown
Weather: no significant weather observed at this time

METAR text: LROP 201030Z 23008KT CAVOK 18/06 Q1027 NOSIG
Conditions at: LROP (BUCHAREST/OTOPEN, RO) observed 1030 UTC 20 October 2021
Temperature: 18.0°C (64°F)
Dewpoint: 6.0°C (43°F) [RH = 45%]
Pressure (altimeter): 30.32 inches Hg (1027.0 mb)
Winds: from the SW (230 degrees) at 9 MPH (8 knots; 4.1 m/s)
Visibility: 6 or more miles (10+ km)
Ceiling: ceiling and visibility are OK
Clouds: unknown
Weather: no significant weather observed at this time

METAR text: LROP 201000Z 25007KT CAVOK 17/07 Q1028 NOSIG
Conditions at: LROP (BUCHAREST/OTOPEN, RO) observed 1000 UTC 20 October 2021
Temperature: 17.0°C (63°F)
Dewpoint: 7.0°C (45°F) [RH = 52%]
Pressure (altimeter): 30.35 inches Hg (1028.0 mb)
Winds: from the WSW (250 degrees) at 8 MPH (7 knots; 3.6 m/s)
Visibility: 6 or more miles (10+ km)
Ceiling: ceiling and visibility are OK
Clouds: unknown
Weather: no significant weather observed at this time

METAR text: LROP 200930Z 26007KT 230V290 CAVOK 17/09 Q1028 NOSIG
Conditions at: LROP (BUCHAREST/OTOPEN, RO) observed 0930 UTC 20 October 2021
Temperature: 17.0°C (63°F)
Dewpoint: 9.0°C (48°F) [RH = 59%]
Pressure (altimeter): 30.35 inches Hg (1028.0 mb)
Winds: from the W (260 degrees) at 8 MPH (7 knots; 3.6 m/s)
Visibility: 6 or more miles (10+ km)
Ceiling: ceiling and visibility are OK
Clouds: unknown
Weather: no significant weather observed at this time

METAR text: LROP 200900Z 26007KT 230V290 CAVOK 16/08 Q1028 NOSIG
Conditions at: LROP (BUCHAREST/OTOPEN, RO) observed 0900 UTC 20 October 2021
Temperature: 16.0°C (61°F)
Dewpoint: 8.0°C (46°F) [RH = 59%]
Pressure (altimeter): 30.35 inches Hg (1028.0 mb)
Winds: from the W (260 degrees) at 8 MPH (7 knots; 3.6 m/s)
Visibility: 6 or more miles (10+ km)
Ceiling: ceiling and visibility are OK
Clouds: unknown
Weather: no significant weather observed at this time

METAR text: LROP 200830Z 25006KT CAVOK 14/08 Q1028 NOSIG
Conditions at: LROP (BUCHAREST/OTOPEN, RO) observed 0830 UTC 20 October 2021
Temperature: 14.0°C (57°F)
Dewpoint: 8.0°C (46°F) [RH = 67%]
Pressure (altimeter): 30.35 inches Hg (1028.0 mb)
Winds: from the WSW (250 degrees) at 7 MPH (6 knots; 3.1 m/s)
Visibility: 6 or more miles (10+ km)
Ceiling: ceiling and visibility are OK
Clouds: unknown
Weather: no significant weather observed at this time

METAR text: LROP 200800Z 24005KT 210V270 CAVOK 13/08 Q1028 NOSIG
Conditions at: LROP (BUCHAREST/OTOPEN, RO) observed 0800 UTC 20 October 2021
Temperature: 13.0°C (55°F)
Dewpoint: 8.0°C (46°F) [RH = 72%]
Pressure (altimeter): 30.35 inches Hg (1028.0 mb)
Winds: from the WSW (240 degrees) at 6 MPH (5 knots; 2.6 m/s)
Visibility: 6 or more miles (10+ km)
Ceiling: ceiling and visibility are OK
Clouds: unknown
Weather: no significant weather observed at this time

METAR text: LROP 200730Z 25005KT 8000 NSC 11/08 Q1029 NOSIG
Conditions at: LROP (BUCHAREST/OTOPEN, RO) observed 0730 UTC 20 October 2021
Temperature: 11.0°C (52°F)
Dewpoint: 8.0°C (46°F) [RH = 82%]
Pressure (altimeter): 30.38 inches Hg (1029.0 mb)
Winds: from the WSW (250 degrees) at 6 MPH (5 knots; 2.6 m/s)
Visibility: 5 miles ( 8 km)
Ceiling: at least 12,000 feet AGL
Clouds: sky clear below 12,000 feet AGL
Weather: no significant weather observed at this time

METAR text: LROP 200700Z 24004KT 6000 NSC 10/08 Q1029 NOSIG
Conditions at: LROP (BUCHAREST/OTOPEN, RO) observed 0700 UTC 20 October 2021
Temperature: 10.0°C (50°F)
Dewpoint: 8.0°C (46°F) [RH = 87%]
Pressure (altimeter): 30.38 inches Hg (1029.0 mb)
Winds: from the WSW (240 degrees) at 5 MPH (4 knots; 2.1 m/s)
Visibility: 4 miles ( 6 km)
Ceiling: at least 12,000 feet AGL
Clouds: sky clear below 12,000 feet AGL
Weather: no significant weather observed at this time

METAR text: LROP 200630Z 25003KT 5000 BR NSC 08/08 Q1029 BECMG CAVOK
Conditions at: LROP (BUCHAREST/OTOPEN, RO) observed 0630 UTC 20 October 2021
Temperature: 8.0°C (46°F)
Dewpoint: 8.0°C (46°F) [RH = 100%]
Pressure (altimeter): 30.38 inches Hg (1029.0 mb)
Winds: from the WSW (250 degrees) at 3 MPH (3 knots; 1.5 m/s)
Visibility: 3 miles ( 5 km)
Ceiling: at least 12,000 feet AGL
Clouds: sky clear below 12,000 feet AGL
Weather: BR  (mist)

METAR text: LROP 200600Z 27003KT 3000 BR NSC 06/06 Q1028 BECMG 5000
Conditions at: LROP (BUCHAREST/OTOPEN, RO) observed 0600 UTC 20 October 2021
Temperature: 6.0°C (43°F)
Dewpoint: 6.0°C (43°F) [RH = 100%]
Pressure (altimeter): 30.35 inches Hg (1028.0 mb)
Winds: from the W (270 degrees) at 3 MPH (3 knots; 1.5 m/s)
Visibility: 1.86 miles (2.99 km)
Ceiling: at least 12,000 feet AGL
Clouds: sky clear below 12,000 feet AGL
Weather: BR  (mist)

METAR text: LROP 200530Z 25001KT 2500 BR FEW003 04/04 Q1028 BECMG 5000
Conditions at: LROP (BUCHAREST/OTOPEN, RO) observed 0530 UTC 20 October 2021
Temperature: 4.0°C (39°F)
Dewpoint: 4.0°C (39°F) [RH = 100%]
Pressure (altimeter): 30.35 inches Hg (1028.0 mb)
Winds: from the WSW (250 degrees) at 1 MPH (1 knots; 0.5 m/s)
Visibility: 1.55 miles (2.49 km)
Ceiling: at least 12,000 feet AGL
Clouds: few clouds at 300 feet AGL
Weather: BR  (mist)

METAR text: LROP 200500Z 27002KT 2500 BR FEW002 03/03 Q1028 BECMG 5000
Conditions at: LROP (BUCHAREST/OTOPEN, RO) observed 0500 UTC 20 October 2021
Temperature: 3.0°C (37°F)
Dewpoint: 3.0°C (37°F) [RH = 100%]
Pressure (altimeter): 30.35 inches Hg (1028.0 mb)
Winds: from the W (270 degrees) at 2 MPH (2 knots; 1.0 m/s)
Visibility: 1.55 miles (2.49 km)
Ceiling: at least 12,000 feet AGL
Clouds: few clouds at 200 feet AGL
Weather: BR  (mist)

METAR text: LROP 200430Z 26003KT 2500 BR NSC 04/04 Q1028 TEMPO 1500 BR
Conditions at: LROP (BUCHAREST/OTOPEN, RO) observed 0430 UTC 20 October 2021
Temperature: 4.0°C (39°F)
Dewpoint: 4.0°C (39°F) [RH = 100%]
Pressure (altimeter): 30.35 inches Hg (1028.0 mb)
Winds: from the W (260 degrees) at 3 MPH (3 knots; 1.5 m/s)
Visibility: 1.55 miles (2.49 km)
Ceiling: at least 12,000 feet AGL
Clouds: sky clear below 12,000 feet AGL
Weather: BR  (mist)

METAR text: LROP 200400Z 27004KT 3500 MIFG BR FEW003 04/04 Q1028 TEMPO 1500 BR
Conditions at: LROP (BUCHAREST/OTOPEN, RO) observed 0400 UTC 20 October 2021
Temperature: 4.0°C (39°F)
Dewpoint: 4.0°C (39°F) [RH = 100%]
Pressure (altimeter): 30.35 inches Hg (1028.0 mb)
Winds: from the W (270 degrees) at 5 MPH (4 knots; 2.1 m/s)
Visibility: 2.17 miles (3.49 km)
Ceiling: at least 12,000 feet AGL
Clouds: few clouds at 300 feet AGL
Weather: MIFG BR  (shallow fog, mist)

METAR text: LROP 200330Z 26002KT 2000 BR BKN002 04/04 Q1028 TEMPO 1500 BR
Conditions at: LROP (BUCHAREST/OTOPEN, RO) observed 0330 UTC 20 October 2021
Temperature: 4.0°C (39°F)
Dewpoint: 4.0°C (39°F) [RH = 100%]
Pressure (altimeter): 30.35 inches Hg (1028.0 mb)
Winds: from the W (260 degrees) at 2 MPH (2 knots; 1.0 m/s)
Visibility: 1.24 miles (2.00 km)
Ceiling: 200 feet AGL
Clouds: broken clouds at 200 feet AGL
Weather: BR  (mist)

METAR text: LROP 200300Z 27003KT 3000 BR NSC 04/04 Q1028 TEMPO 1500 BR
Conditions at: LROP (BUCHAREST/OTOPEN, RO) observed 0300 UTC 20 October 2021
Temperature: 4.0°C (39°F)
Dewpoint: 4.0°C (39°F) [RH = 100%]
Pressure (altimeter): 30.35 inches Hg (1028.0 mb)
Winds: from the W (270 degrees) at 3 MPH (3 knots; 1.5 m/s)
Visibility: 1.86 miles (2.99 km)
Ceiling: at least 12,000 feet AGL
Clouds: sky clear below 12,000 feet AGL
Weather: BR  (mist)

METAR text: LROP 200230Z 24002KT 5000 BR NSC 05/05 Q1028 TEMPO 1500 BR
Conditions at: LROP (BUCHAREST/OTOPEN, RO) observed 0230 UTC 20 October 2021
Temperature: 5.0°C (41°F)
Dewpoint: 5.0°C (41°F) [RH = 100%]
Pressure (altimeter): 30.35 inches Hg (1028.0 mb)
Winds: from the WSW (240 degrees) at 2 MPH (2 knots; 1.0 m/s)
Visibility: 3 miles ( 5 km)
Ceiling: at least 12,000 feet AGL
Clouds: sky clear below 12,000 feet AGL
Weather: BR  (mist)

METAR text: LROP 200200Z 28002KT 5000 BR NSC 05/05 Q1028 TEMPO 1500 BR
Conditions at: LROP (BUCHAREST/OTOPEN, RO) observed 0200 UTC 20 October 2021
Temperature: 5.0°C (41°F)
Dewpoint: 5.0°C (41°F) [RH = 100%]
Pressure (altimeter): 30.35 inches Hg (1028.0 mb)
Winds: from the W (280 degrees) at 2 MPH (2 knots; 1.0 m/s)
Visibility: 3 miles ( 5 km)
Ceiling: at least 12,000 feet AGL
Clouds: sky clear below 12,000 feet AGL
Weather: BR  (mist)

METAR text: LROP 200130Z 27002KT 5000 BR NSC 05/05 Q1028 TEMPO 1500 BR
Conditions at: LROP (BUCHAREST/OTOPEN, RO) observed 0130 UTC 20 October 2021
Temperature: 5.0°C (41°F)
Dewpoint: 5.0°C (41°F) [RH = 100%]
Pressure (altimeter): 30.35 inches Hg (1028.0 mb)
Winds: from the W (270 degrees) at 2 MPH (2 knots; 1.0 m/s)
Visibility: 3 miles ( 5 km)
Ceiling: at least 12,000 feet AGL
Clouds: sky clear below 12,000 feet AGL
Weather: BR  (mist)

METAR text: LROP 200100Z 27003KT 5000 BR NSC 05/05 Q1028 NOSIG
Conditions at: LROP (BUCHAREST/OTOPEN, RO) observed 0100 UTC 20 October 2021
Temperature: 5.0°C (41°F)
Dewpoint: 5.0°C (41°F) [RH = 100%]
Pressure (altimeter): 30.35 inches Hg (1028.0 mb)
Winds: from the W (270 degrees) at 3 MPH (3 knots; 1.5 m/s)
Visibility: 3 miles ( 5 km)
Ceiling: at least 12,000 feet AGL
Clouds: sky clear below 12,000 feet AGL
Weather: BR  (mist)

METAR text: LROP 200030Z 23003KT 5000 BR NSC 05/05 Q1029 NOSIG
Conditions at: LROP (BUCHAREST/OTOPEN, RO) observed 0030 UTC 20 October 2021
Temperature: 5.0°C (41°F)
Dewpoint: 5.0°C (41°F) [RH = 100%]
Pressure (altimeter): 30.38 inches Hg (1029.0 mb)
Winds: from the SW (230 degrees) at 3 MPH (3 knots; 1.5 m/s)
Visibility: 3 miles ( 5 km)
Ceiling: at least 12,000 feet AGL
Clouds: sky clear below 12,000 feet AGL
Weather: BR  (mist)

METAR text: LROP 200000Z 00000KT 5000 BR NSC 06/06 Q1029 NOSIG
Conditions at: LROP (BUCHAREST/OTOPEN, RO) observed 0000 UTC 20 October 2021
Temperature: 6.0°C (43°F)
Dewpoint: 6.0°C (43°F) [RH = 100%]
Pressure (altimeter): 30.38 inches Hg (1029.0 mb)
Winds: calm
Visibility: 3 miles ( 5 km)
Ceiling: at least 12,000 feet AGL
Clouds: sky clear below 12,000 feet AGL
Weather: BR  (mist)

METAR text: LROP 192330Z VRB01KT 6000 NSC 06/06 Q1029 NOSIG
Conditions at: LROP (BUCHAREST/OTOPEN, RO) observed 2330 UTC 19 October 2021
Temperature: 6.0°C (43°F)
Dewpoint: 6.0°C (43°F) [RH = 100%]
Pressure (altimeter): 30.38 inches Hg (1029.0 mb)
Winds: variable direction winds at 1 MPH (1 knots; 0.5 m/s)
Visibility: 4 miles ( 6 km)
Ceiling: at least 12,000 feet AGL
Clouds: sky clear below 12,000 feet AGL
Weather: no significant weather observed at this time

METAR text: LROP 192300Z 00000KT 6000 NSC 06/06 Q1029 NOSIG
Conditions at: LROP (BUCHAREST/OTOPEN, RO) observed 2300 UTC 19 October 2021
Temperature: 6.0°C (43°F)
Dewpoint: 6.0°C (43°F) [RH = 100%]
Pressure (altimeter): 30.38 inches Hg (1029.0 mb)
Winds: calm
Visibility: 4 miles ( 6 km)
Ceiling: at least 12,000 feet AGL
Clouds: sky clear below 12,000 feet AGL
Weather: no significant weather observed at this time

METAR text: LROP 192230Z 00000KT 7000 NSC 06/06 Q1029 NOSIG
Conditions at: LROP (BUCHAREST/OTOPEN, RO) observed 2230 UTC 19 October 2021
Temperature: 6.0°C (43°F)
Dewpoint: 6.0°C (43°F) [RH = 100%]
Pressure (altimeter): 30.38 inches Hg (1029.0 mb)
Winds: calm
Visibility: 4 miles ( 7 km)
Ceiling: at least 12,000 feet AGL
Clouds: sky clear below 12,000 feet AGL
Weather: no significant weather observed at this time

METAR text: LROP 192200Z VRB01KT 8000 NSC 06/06 Q1029 NOSIG
Conditions at: LROP (BUCHAREST/OTOPEN, RO) observed 2200 UTC 19 October 2021
Temperature: 6.0°C (43°F)
Dewpoint: 6.0°C (43°F) [RH = 100%]
Pressure (altimeter): 30.38 inches Hg (1029.0 mb)
Winds: variable direction winds at 1 MPH (1 knots; 0.5 m/s)
Visibility: 5 miles ( 8 km)
Ceiling: at least 12,000 feet AGL
Clouds: sky clear below 12,000 feet AGL
Weather: no significant weather observed at this time

METAR text: LROP 192130Z 27004KT 8000 NSC 06/06 Q1029 NOSIG
Conditions at: LROP (BUCHAREST/OTOPEN, RO) observed 2130 UTC 19 October 2021
Temperature: 6.0°C (43°F)
Dewpoint: 6.0°C (43°F) [RH = 100%]
Pressure (altimeter): 30.38 inches Hg (1029.0 mb)
Winds: from the W (270 degrees) at 5 MPH (4 knots; 2.1 m/s)
Visibility: 5 miles ( 8 km)
Ceiling: at least 12,000 feet AGL
Clouds: sky clear below 12,000 feet AGL
Weather: no significant weather observed at this time

METAR text: LROP 192100Z 26004KT 7000 NSC 06/06 Q1029 NOSIG
Conditions at: LROP (BUCHAREST/OTOPEN, RO) observed 2100 UTC 19 October 2021
Temperature: 6.0°C (43°F)
Dewpoint: 6.0°C (43°F) [RH = 100%]
Pressure (altimeter): 30.38 inches Hg (1029.0 mb)
Winds: from the W (260 degrees) at 5 MPH (4 knots; 2.1 m/s)
Visibility: 4 miles ( 7 km)
Ceiling: at least 12,000 feet AGL
Clouds: sky clear below 12,000 feet AGL
Weather: no significant weather observed at this time

METAR text: LROP 192030Z 27004KT 8000 NSC 07/07 Q1029 NOSIG
Conditions at: LROP (BUCHAREST/OTOPEN, RO) observed 2030 UTC 19 October 2021
Temperature: 7.0°C (45°F)
Dewpoint: 7.0°C (45°F) [RH = 100%]
Pressure (altimeter): 30.38 inches Hg (1029.0 mb)
Winds: from the W (270 degrees) at 5 MPH (4 knots; 2.1 m/s)
Visibility: 5 miles ( 8 km)
Ceiling: at least 12,000 feet AGL
Clouds: sky clear below 12,000 feet AGL
Weather: no significant weather observed at this time

METAR text: LROP 192000Z 27003KT CAVOK 07/07 Q1029 NOSIG
Conditions at: LROP (BUCHAREST/OTOPEN, RO) observed 2000 UTC 19 October 2021
Temperature: 7.0°C (45°F)
Dewpoint: 7.0°C (45°F) [RH = 100%]
Pressure (altimeter): 30.38 inches Hg (1029.0 mb)
Winds: from the W (270 degrees) at 3 MPH (3 knots; 1.5 m/s)
Visibility: 6 or more miles (10+ km)
Ceiling: ceiling and visibility are OK
Clouds: unknown
Weather: no significant weather observed at this time

METAR text: LROP 191930Z 26002KT CAVOK 07/07 Q1029 NOSIG
Conditions at: LROP (BUCHAREST/OTOPEN, RO) observed 1930 UTC 19 October 2021
Temperature: 7.0°C (45°F)
Dewpoint: 7.0°C (45°F) [RH = 100%]
Pressure (altimeter): 30.38 inches Hg (1029.0 mb)
Winds: from the W (260 degrees) at 2 MPH (2 knots; 1.0 m/s)
Visibility: 6 or more miles (10+ km)
Ceiling: ceiling and visibility are OK
Clouds: unknown
Weather: no significant weather observed at this time

METAR text: LROP 191900Z 23001KT CAVOK 08/07 Q1029 NOSIG
Conditions at: LROP (BUCHAREST/OTOPEN, RO) observed 1900 UTC 19 October 2021
Temperature: 8.0°C (46°F)
Dewpoint: 7.0°C (45°F) [RH = 93%]
Pressure (altimeter): 30.38 inches Hg (1029.0 mb)
Winds: from the SW (230 degrees) at 1 MPH (1 knots; 0.5 m/s)
Visibility: 6 or more miles (10+ km)
Ceiling: ceiling and visibility are OK
Clouds: unknown
Weather: no significant weather observed at this time

METAR text: LROP 191830Z 23002KT CAVOK 08/07 Q1029 NOSIG
Conditions at: LROP (BUCHAREST/OTOPEN, RO) observed 1830 UTC 19 October 2021
Temperature: 8.0°C (46°F)
Dewpoint: 7.0°C (45°F) [RH = 93%]
Pressure (altimeter): 30.38 inches Hg (1029.0 mb)
Winds: from the SW (230 degrees) at 2 MPH (2 knots; 1.0 m/s)
Visibility: 6 or more miles (10+ km)
Ceiling: ceiling and visibility are OK
Clouds: unknown
Weather: no significant weather observed at this time

METAR text: LROP 191800Z VRB01KT CAVOK 08/07 Q1029 NOSIG
Conditions at: LROP (BUCHAREST/OTOPEN, RO) observed 1800 UTC 19 October 2021
Temperature: 8.0°C (46°F)
Dewpoint: 7.0°C (45°F) [RH = 93%]
Pressure (altimeter): 30.38 inches Hg (1029.0 mb)
Winds: variable direction winds at 1 MPH (1 knots; 0.5 m/s)
Visibility: 6 or more miles (10+ km)
Ceiling: ceiling and visibility are OK
Clouds: unknown
Weather: no significant weather observed at this time

METAR text: LROP 191730Z 19001KT CAVOK 08/07 Q1029 NOSIG
Conditions at: LROP (BUCHAREST/OTOPEN, RO) observed 1730 UTC 19 October 2021
Temperature: 8.0°C (46°F)
Dewpoint: 7.0°C (45°F) [RH = 93%]
Pressure (altimeter): 30.38 inches Hg (1029.0 mb)
Winds: from the S (190 degrees) at 1 MPH (1 knots; 0.5 m/s)
Visibility: 6 or more miles (10+ km)
Ceiling: ceiling and visibility are OK
Clouds: unknown
Weather: no significant weather observed at this time

METAR text: LROP 191700Z 17002KT CAVOK 08/07 Q1028 NOSIG
Conditions at: LROP (BUCHAREST/OTOPEN, RO) observed 1700 UTC 19 October 2021
Temperature: 8.0°C (46°F)
Dewpoint: 7.0°C (45°F) [RH = 93%]
Pressure (altimeter): 30.35 inches Hg (1028.0 mb)
Winds: from the S (170 degrees) at 2 MPH (2 knots; 1.0 m/s)
Visibility: 6 or more miles (10+ km)
Ceiling: ceiling and visibility are OK
Clouds: unknown
Weather: no significant weather observed at this time

METAR text: LROP 191630Z 00000KT CAVOK 10/08 Q1028 NOSIG
Conditions at: LROP (BUCHAREST/OTOPEN, RO) observed 1630 UTC 19 October 2021
Temperature: 10.0°C (50°F)
Dewpoint: 8.0°C (46°F) [RH = 87%]
Pressure (altimeter): 30.35 inches Hg (1028.0 mb)
Winds: calm
Visibility: 6 or more miles (10+ km)
Ceiling: ceiling and visibility are OK
Clouds: unknown
Weather: no significant weather observed at this time

METAR text: LROP 191600Z VRB02KT CAVOK 10/06 Q1028 NOSIG
Conditions at: LROP (BUCHAREST/OTOPEN, RO) observed 1600 UTC 19 October 2021
Temperature: 10.0°C (50°F)
Dewpoint: 6.0°C (43°F) [RH = 76%]
Pressure (altimeter): 30.35 inches Hg (1028.0 mb)
Winds: variable direction winds at 2 MPH (2 knots; 1.0 m/s)
Visibility: 6 or more miles (10+ km)
Ceiling: ceiling and visibility are OK
Clouds: unknown
Weather: no significant weather observed at this time

METAR text: LROP 191530Z 17003KT CAVOK 12/05 Q1028 NOSIG
Conditions at: LROP (BUCHAREST/OTOPEN, RO) observed 1530 UTC 19 October 2021
Temperature: 12.0°C (54°F)
Dewpoint: 5.0°C (41°F) [RH = 62%]
Pressure (altimeter): 30.35 inches Hg (1028.0 mb)
Winds: from the S (170 degrees) at 3 MPH (3 knots; 1.5 m/s)
Visibility: 6 or more miles (10+ km)
Ceiling: ceiling and visibility are OK
Clouds: unknown
Weather: no significant weather observed at this time

METAR text: LROP 191500Z 19002KT CAVOK 13/04 Q1028 NOSIG
Conditions at: LROP (BUCHAREST/OTOPEN, RO) observed 1500 UTC 19 October 2021
Temperature: 13.0°C (55°F)
Dewpoint: 4.0°C (39°F) [RH = 54%]
Pressure (altimeter): 30.35 inches Hg (1028.0 mb)
Winds: from the S (190 degrees) at 2 MPH (2 knots; 1.0 m/s)
Visibility: 6 or more miles (10+ km)
Ceiling: ceiling and visibility are OK
Clouds: unknown
Weather: no significant weather observed at this time

METAR text: LROP 191430Z 23003KT CAVOK 13/04 Q1028 NOSIG
Conditions at: LROP (BUCHAREST/OTOPEN, RO) observed 1430 UTC 19 October 2021
Temperature: 13.0°C (55°F)
Dewpoint: 4.0°C (39°F) [RH = 54%]
Pressure (altimeter): 30.35 inches Hg (1028.0 mb)
Winds: from the SW (230 degrees) at 3 MPH (3 knots; 1.5 m/s)
Visibility: 6 or more miles (10+ km)
Ceiling: ceiling and visibility are OK
Clouds: unknown
Weather: no significant weather observed at this time

METAR text: LROP 191400Z 21003KT CAVOK 15/02 Q1028 NOSIG
Conditions at: LROP (BUCHAREST/OTOPEN, RO) observed 1400 UTC 19 October 2021
Temperature: 15.0°C (59°F)
Dewpoint: 2.0°C (36°F) [RH = 41%]
Pressure (altimeter): 30.35 inches Hg (1028.0 mb)
Winds: from the SSW (210 degrees) at 3 MPH (3 knots; 1.5 m/s)
Visibility: 6 or more miles (10+ km)
Ceiling: ceiling and visibility are OK
Clouds: unknown
Weather: no significant weather observed at this time

METAR text: LROP 191330Z 11003KT 070V160 CAVOK 16/01 Q1028 NOSIG
Conditions at: LROP (BUCHAREST/OTOPEN, RO) observed 1330 UTC 19 October 2021
Temperature: 16.0°C (61°F)
Dewpoint: 1.0°C (34°F) [RH = 36%]
Pressure (altimeter): 30.35 inches Hg (1028.0 mb)
Winds: from the ESE (110 degrees) at 3 MPH (3 knots; 1.5 m/s)
Visibility: 6 or more miles (10+ km)
Ceiling: ceiling and visibility are OK
Clouds: unknown
Weather: no significant weather observed at this time

METAR text: LROP 191300Z 17005KT CAVOK 16/02 Q1028 NOSIG
Conditions at: LROP (BUCHAREST/OTOPEN, RO) observed 1300 UTC 19 October 2021
Temperature: 16.0°C (61°F)
Dewpoint: 2.0°C (36°F) [RH = 39%]
Pressure (altimeter): 30.35 inches Hg (1028.0 mb)
Winds: from the S (170 degrees) at 6 MPH (5 knots; 2.6 m/s)
Visibility: 6 or more miles (10+ km)
Ceiling: ceiling and visibility are OK
Clouds: unknown
Weather: no significant weather observed at this time

METAR text: LROP 191230Z VRB02KT CAVOK 16/01 Q1028 NOSIG
Conditions at: LROP (BUCHAREST/OTOPEN, RO) observed 1230 UTC 19 October 2021
Temperature: 16.0°C (61°F)
Dewpoint: 1.0°C (34°F) [RH = 36%]
Pressure (altimeter): 30.35 inches Hg (1028.0 mb)
Winds: variable direction winds at 2 MPH (2 knots; 1.0 m/s)
Visibility: 6 or more miles (10+ km)
Ceiling: ceiling and visibility are OK
Clouds: unknown
Weather: no significant weather observed at this time

METAR text: LROP 191200Z 17003KT 110V220 CAVOK 16/01 Q1028 NOSIG
Conditions at: LROP (BUCHAREST/OTOPEN, RO) observed 1200 UTC 19 October 2021
Temperature: 16.0°C (61°F)
Dewpoint: 1.0°C (34°F) [RH = 36%]
Pressure (altimeter): 30.35 inches Hg (1028.0 mb)
Winds: from the S (170 degrees) at 3 MPH (3 knots; 1.5 m/s)
Visibility: 6 or more miles (10+ km)
Ceiling: ceiling and visibility are OK
Clouds: unknown
Weather: no significant weather observed at this time

METAR text: LROP 191130Z VRB04KT CAVOK 16/03 Q1028 NOSIG
Conditions at: LROP (BUCHAREST/OTOPEN, RO) observed 1130 UTC 19 October 2021
Temperature: 16.0°C (61°F)
Dewpoint: 3.0°C (37°F) [RH = 42%]
Pressure (altimeter): 30.35 inches Hg (1028.0 mb)
Winds: variable direction winds at 5 MPH (4 knots; 2.1 m/s)
Visibility: 6 or more miles (10+ km)
Ceiling: ceiling and visibility are OK
Clouds: unknown
Weather: no significant weather observed at this time

METAR text: LROP 191100Z 20003KT 140V290 CAVOK 15/02 Q1029 NOSIG
Conditions at: LROP (BUCHAREST/OTOPEN, RO) observed 1100 UTC 19 October 2021
Temperature: 15.0°C (59°F)
Dewpoint: 2.0°C (36°F) [RH = 41%]
Pressure (altimeter): 30.38 inches Hg (1029.0 mb)
Winds: from the SSW (200 degrees) at 3 MPH (3 knots; 1.5 m/s)
Visibility: 6 or more miles (10+ km)
Ceiling: ceiling and visibility are OK
Clouds: unknown
Weather: no significant weather observed at this time

METAR text: LROP 191030Z VRB03KT CAVOK 15/03 Q1029 NOSIG
Conditions at: LROP (BUCHAREST/OTOPEN, RO) observed 1030 UTC 19 October 2021
Temperature: 15.0°C (59°F)
Dewpoint: 3.0°C (37°F) [RH = 44%]
Pressure (altimeter): 30.38 inches Hg (1029.0 mb)
Winds: variable direction winds at 3 MPH (3 knots; 1.5 m/s)
Visibility: 6 or more miles (10+ km)
Ceiling: ceiling and visibility are OK
Clouds: unknown
Weather: no significant weather observed at this time

METAR text: LROP 191000Z 15004KT 110V200 CAVOK 15/03 Q1029 NOSIG
Conditions at: LROP (BUCHAREST/OTOPEN, RO) observed 1000 UTC 19 October 2021
Temperature: 15.0°C (59°F)
Dewpoint: 3.0°C (37°F) [RH = 44%]
Pressure (altimeter): 30.38 inches Hg (1029.0 mb)
Winds: from the SSE (150 degrees) at 5 MPH (4 knots; 2.1 m/s)
Visibility: 6 or more miles (10+ km)
Ceiling: ceiling and visibility are OK
Clouds: unknown
Weather: no significant weather observed at this time

METAR text: LROP 190930Z 17003KT 060V210 CAVOK 15/06 Q1029 NOSIG
Conditions at: LROP (BUCHAREST/OTOPEN, RO) observed 0930 UTC 19 October 2021
Temperature: 15.0°C (59°F)
Dewpoint: 6.0°C (43°F) [RH = 55%]
Pressure (altimeter): 30.38 inches Hg (1029.0 mb)
Winds: from the S (170 degrees) at 3 MPH (3 knots; 1.5 m/s)
Visibility: 6 or more miles (10+ km)
Ceiling: ceiling and visibility are OK
Clouds: unknown
Weather: no significant weather observed at this time

METAR text: LROP 190900Z VRB02KT CAVOK 14/05 Q1029 NOSIG
Conditions at: LROP (BUCHAREST/OTOPEN, RO) observed 0900 UTC 19 October 2021
Temperature: 14.0°C (57°F)
Dewpoint: 5.0°C (41°F) [RH = 55%]
Pressure (altimeter): 30.38 inches Hg (1029.0 mb)
Winds: variable direction winds at 2 MPH (2 knots; 1.0 m/s)
Visibility: 6 or more miles (10+ km)
Ceiling: ceiling and visibility are OK
Clouds: unknown
Weather: no significant weather observed at this time

METAR text: LROP 190830Z VRB02KT CAVOK 13/07 Q1029 NOSIG
Conditions at: LROP (BUCHAREST/OTOPEN, RO) observed 0830 UTC 19 October 2021
Temperature: 13.0°C (55°F)
Dewpoint: 7.0°C (45°F) [RH = 67%]
Pressure (altimeter): 30.38 inches Hg (1029.0 mb)
Winds: variable direction winds at 2 MPH (2 knots; 1.0 m/s)
Visibility: 6 or more miles (10+ km)
Ceiling: ceiling and visibility are OK
Clouds: unknown
Weather: no significant weather observed at this time

METAR text: LROP 190800Z VRB01KT CAVOK 13/07 Q1029 NOSIG
Conditions at: LROP (BUCHAREST/OTOPEN, RO) observed 0800 UTC 19 October 2021
Temperature: 13.0°C (55°F)
Dewpoint: 7.0°C (45°F) [RH = 67%]
Pressure (altimeter): 30.38 inches Hg (1029.0 mb)
Winds: variable direction winds at 1 MPH (1 knots; 0.5 m/s)
Visibility: 6 or more miles (10+ km)
Ceiling: ceiling and visibility are OK
Clouds: unknown
Weather: no significant weather observed at this time

METAR text: LROP 190730Z VRB01KT CAVOK 12/06 Q1029 NOSIG
Conditions at: LROP (BUCHAREST/OTOPEN, RO) observed 0730 UTC 19 October 2021
Temperature: 12.0°C (54°F)
Dewpoint: 6.0°C (43°F) [RH = 67%]
Pressure (altimeter): 30.38 inches Hg (1029.0 mb)
Winds: variable direction winds at 1 MPH (1 knots; 0.5 m/s)
Visibility: 6 or more miles (10+ km)
Ceiling: ceiling and visibility are OK
Clouds: unknown
Weather: no significant weather observed at this time

METAR text: LROP 190700Z VRB01KT CAVOK 12/07 Q1029 NOSIG
Conditions at: LROP (BUCHAREST/OTOPEN, RO) observed 0700 UTC 19 October 2021
Temperature: 12.0°C (54°F)
Dewpoint: 7.0°C (45°F) [RH = 71%]
Pressure (altimeter): 30.38 inches Hg (1029.0 mb)
Winds: variable direction winds at 1 MPH (1 knots; 0.5 m/s)
Visibility: 6 or more miles (10+ km)
Ceiling: ceiling and visibility are OK
Clouds: unknown
Weather: no significant weather observed at this time

METAR text: LROP 190630Z 12001KT CAVOK 11/08 Q1029 NOSIG
Conditions at: LROP (BUCHAREST/OTOPEN, RO) observed 0630 UTC 19 October 2021
Temperature: 11.0°C (52°F)
Dewpoint: 8.0°C (46°F) [RH = 82%]
Pressure (altimeter): 30.38 inches Hg (1029.0 mb)
Winds: from the ESE (120 degrees) at 1 MPH (1 knots; 0.5 m/s)
Visibility: 6 or more miles (10+ km)
Ceiling: ceiling and visibility are OK
Clouds: unknown
Weather: no significant weather observed at this time

METAR text: LROP 190600Z 07002KT CAVOK 11/08 Q1028 NOSIG
Conditions at: LROP (BUCHAREST/OTOPEN, RO) observed 0600 UTC 19 October 2021
Temperature: 11.0°C (52°F)
Dewpoint: 8.0°C (46°F) [RH = 82%]
Pressure (altimeter): 30.35 inches Hg (1028.0 mb)
Winds: from the ENE (70 degrees) at 2 MPH (2 knots; 1.0 m/s)
Visibility: 6 or more miles (10+ km)
Ceiling: ceiling and visibility are OK
Clouds: unknown
Weather: no significant weather observed at this time

METAR text: LROP 190530Z VRB01KT CAVOK 10/08 Q1028 NOSIG
Conditions at: LROP (BUCHAREST/OTOPEN, RO) observed 0530 UTC 19 October 2021
Temperature: 10.0°C (50°F)
Dewpoint: 8.0°C (46°F) [RH = 87%]
Pressure (altimeter): 30.35 inches Hg (1028.0 mb)
Winds: variable direction winds at 1 MPH (1 knots; 0.5 m/s)
Visibility: 6 or more miles (10+ km)
Ceiling: ceiling and visibility are OK
Clouds: unknown
Weather: no significant weather observed at this time

METAR text: LROP 190500Z 05001KT CAVOK 09/08 Q1028 NOSIG
Conditions at: LROP (BUCHAREST/OTOPEN, RO) observed 0500 UTC 19 October 2021
Temperature: 9.0°C (48°F)
Dewpoint: 8.0°C (46°F) [RH = 93%]
Pressure (altimeter): 30.35 inches Hg (1028.0 mb)
Winds: from the NE (50 degrees) at 1 MPH (1 knots; 0.5 m/s)
Visibility: 6 or more miles (10+ km)
Ceiling: ceiling and visibility are OK
Clouds: unknown
Weather: no significant weather observed at this time

METAR text: LROP 190430Z 04003KT CAVOK 10/07 Q1027 NOSIG
Conditions at: LROP (BUCHAREST/OTOPEN, RO) observed 0430 UTC 19 October 2021
Temperature: 10.0°C (50°F)
Dewpoint: 7.0°C (45°F) [RH = 82%]
Pressure (altimeter): 30.32 inches Hg (1027.0 mb)
Winds: from the NE (40 degrees) at 3 MPH (3 knots; 1.5 m/s)
Visibility: 6 or more miles (10+ km)
Ceiling: ceiling and visibility are OK
Clouds: unknown
Weather: no significant weather observed at this time

METAR text: LROP 190400Z 03003KT 9999 SCT049 10/07 Q1027 NOSIG
Conditions at: LROP (BUCHAREST/OTOPEN, RO) observed 0400 UTC 19 October 2021
Temperature: 10.0°C (50°F)
Dewpoint: 7.0°C (45°F) [RH = 82%]
Pressure (altimeter): 30.32 inches Hg (1027.0 mb)
Winds: from the NNE (30 degrees) at 3 MPH (3 knots; 1.5 m/s)
Visibility: 6 or more miles (10+ km)
Ceiling: at least 12,000 feet AGL
Clouds: scattered clouds at 4900 feet AGL
Weather: no significant weather observed at this time

METAR text: LROP 190330Z 02003KT CAVOK 10/09 Q1027 NOSIG
Conditions at: LROP (BUCHAREST/OTOPEN, RO) observed 0330 UTC 19 October 2021
Temperature: 10.0°C (50°F)
Dewpoint: 9.0°C (48°F) [RH = 93%]
Pressure (altimeter): 30.32 inches Hg (1027.0 mb)
Winds: from the NNE (20 degrees) at 3 MPH (3 knots; 1.5 m/s)
Visibility: 6 or more miles (10+ km)
Ceiling: ceiling and visibility are OK
Clouds: unknown
Weather: no significant weather observed at this time

METAR text: LROP 190300Z 01003KT 9000 SCT050 10/10 Q1027 NOSIG
Conditions at: LROP (BUCHAREST/OTOPEN, RO) observed 0300 UTC 19 October 2021
Temperature: 10.0°C (50°F)
Dewpoint: 10.0°C (50°F) [RH = 100%]
Pressure (altimeter): 30.32 inches Hg (1027.0 mb)
Winds: from the N (10 degrees) at 3 MPH (3 knots; 1.5 m/s)
Visibility: 6 miles ( 9 km)
Ceiling: at least 12,000 feet AGL
Clouds: scattered clouds at 5000 feet AGL
Weather: no significant weather observed at this time

METAR text: LROP 190230Z 00000KT 5000 BR FEW048 10/10 Q1027 NOSIG
Conditions at: LROP (BUCHAREST/OTOPEN, RO) observed 0230 UTC 19 October 2021
Temperature: 10.0°C (50°F)
Dewpoint: 10.0°C (50°F) [RH = 100%]
Pressure (altimeter): 30.32 inches Hg (1027.0 mb)
Winds: calm
Visibility: 3 miles ( 5 km)
Ceiling: at least 12,000 feet AGL
Clouds: few clouds at 4800 feet AGL
Weather: BR  (mist)

METAR text: LROP 190200Z 36001KT 5000 NSC 10/10 Q1026 NOSIG
Conditions at: LROP (BUCHAREST/OTOPEN, RO) observed 0200 UTC 19 October 2021
Temperature: 10.0°C (50°F)
Dewpoint: 10.0°C (50°F) [RH = 100%]
Pressure (altimeter): 30.30 inches Hg (1026.0 mb)
Winds: from the N (360 degrees) at 1 MPH (1 knots; 0.5 m/s)
Visibility: 3 miles ( 5 km)
Ceiling: at least 12,000 feet AGL
Clouds: sky clear below 12,000 feet AGL
Weather: no significant weather observed at this time

Forecast for: LROP (BUCHAREST/OTOPEN, RO)
Text: TAF LROP 201100Z 2012/2112 25008KT CAVOK
Forecast period: 1200 to 2300 UTC 20 October 2021
Forecast type: FROM: standard forecast or significant change
Winds: from the WSW (250 degrees) at 9 MPH (8 knots; 4.1 m/s)
Visibility: 6 or more miles (10+ km)
Ceiling: unknown
Clouds: missing
Weather: NSW  (no significant weather)
Text: BECMG 2023/2101 3000 BR
Forecast period: 2300 UTC 20 October 2021 to 0400 UTC 21 October 2021
Forecast type: BECOMING: Conditions expected to become as follows by 0100 UTC 21 October 2021
Winds: from the WSW (250 degrees) at 9 MPH (8 knots; 4.1 m/s)
Visibility: 1.86 miles (2.99 km)
Ceiling: unknown
Clouds: missing
Weather: BR  (mist)
Text: PROB30
Forecast period: 0100 to 0400 UTC 21 October 2021
Forecast type: TEMPORARY: The following changes expected for less than half the time period
Visibility: 0.93 miles (1.50 km)
Ceiling: unknown
Clouds: missing
Weather: BR  (mist)
Text: TEMPO 2101/2104 1500 BR
Forecast period: 0400 to 1200 UTC 21 October 2021
Forecast type: BECOMING: Conditions expected to become as follows by 0600 UTC 21 October 2021
Winds: from the WSW (250 degrees) at 9 MPH (8 knots; 4.1 m/s)
Visibility: 6 or more miles (10+ km)
Ceiling: unknown
Clouds: missing
Weather: NSW  (no significant weather)